Seven Mile, Ohio
Current Conditions -  °F | °C
As of 3:35 PM on Thursday 23 Oct 2014 (Local Time) from KMWO Reporting Station
Clear Clear  
Wind Chill: 60°   Ceiling: Unl
Heat Index: 60°   Visibility: 10mi
Dew Point: 37°   Wind: 0mph
Humidity: 43%   Direction: NA
Pressure: 30.17"   Gusts: NA
Location:  39.48°N, 84.55°W
Report Text: KMWO 231935Z AUTO 00000KT 10SM CLR 15/03 A3017 RMK AO2 T01540027
Loading
Personal Weather Stations






























Interactive Weather Map
Tropical Storm Tracking
New forecast layout! Learn more

10-Day Weather Forecast

Advertisements
Track Severe Weather on mobile